sensor_id;sensor_type;location;lat;lon;timestamp;P1;durP1;ratioP1;P2;durP2;ratioP2
73697;SDS011;62004;42.566;23.164;2023-06-14T00:00:19;31.42;;;14.02;;
73697;SDS011;62004;42.566;23.164;2023-06-14T00:10:23;36.67;;;15.52;;
73697;SDS011;62004;42.566;23.164;2023-06-14T00:12:49;30.58;;;13.77;;
73697;SDS011;62004;42.566;23.164;2023-06-14T00:15:14;25.97;;;11.37;;
73697;SDS011;62004;42.566;23.164;2023-06-14T00:17:39;23.33;;;11.60;;
73697;SDS011;62004;42.566;23.164;2023-06-14T00:20:05;25.90;;;11.90;;
73697;SDS011;62004;42.566;23.164;2023-06-14T00:22:31;23.70;;;11.90;;
73697;SDS011;62004;42.566;23.164;2023-06-14T00:24:57;30.67;;;12.90;;
73697;SDS011;62004;42.566;23.164;2023-06-14T00:27:23;31.13;;;13.32;;
73697;SDS011;62004;42.566;23.164;2023-06-14T00:29:48;30.98;;;12.10;;
73697;SDS011;62004;42.566;23.164;2023-06-14T00:32:13;27.53;;;11.67;;
73697;SDS011;62004;42.566;23.164;2023-06-14T00:34:39;27.33;;;10.70;;
73697;SDS011;62004;42.566;23.164;2023-06-14T00:37:04;30.50;;;12.43;;
73697;SDS011;62004;42.566;23.164;2023-06-14T00:39:29;25.80;;;11.80;;
73697;SDS011;62004;42.566;23.164;2023-06-14T00:41:55;24.77;;;11.40;;
73697;SDS011;62004;42.566;23.164;2023-06-14T00:44:20;19.33;;;9.80;;
73697;SDS011;62004;42.566;23.164;2023-06-14T00:46:46;24.77;;;11.90;;
73697;SDS011;62004;42.566;23.164;2023-06-14T00:49:12;22.83;;;10.82;;
73697;SDS011;62004;42.566;23.164;2023-06-14T00:51:40;26.30;;;11.25;;
73697;SDS011;62004;42.566;23.164;2023-06-14T00:54:05;26.10;;;12.05;;
73697;SDS011;62004;42.566;23.164;2023-06-14T00:56:30;26.83;;;10.90;;
73697;SDS011;62004;42.566;23.164;2023-06-14T00:58:56;23.87;;;11.77;;
73697;SDS011;62004;42.566;23.164;2023-06-14T01:01:22;26.45;;;11.68;;
73697;SDS011;62004;42.566;23.164;2023-06-14T01:03:48;26.20;;;11.90;;
73697;SDS011;62004;42.566;23.164;2023-06-14T01:11:43;31.30;;;12.53;;
73697;SDS011;62004;42.566;23.164;2023-06-14T01:14:10;27.27;;;10.35;;
73697;SDS011;62004;42.566;23.164;2023-06-14T01:16:37;35.03;;;12.57;;
73697;SDS011;62004;42.566;23.164;2023-06-14T01:19:04;26.85;;;10.57;;
73697;SDS011;62004;42.566;23.164;2023-06-14T01:21:30;24.63;;;10.60;;
73697;SDS011;62004;42.566;23.164;2023-06-14T01:23:56;23.05;;;10.32;;
73697;SDS011;62004;42.566;23.164;2023-06-14T01:26:21;22.77;;;9.63;;
73697;SDS011;62004;42.566;23.164;2023-06-14T01:28:47;25.52;;;11.93;;
73697;SDS011;62004;42.566;23.164;2023-06-14T01:31:19;16.75;;;8.35;;
73697;SDS011;62004;42.566;23.164;2023-06-14T01:33:46;15.65;;;7.70;;
73697;SDS011;62004;42.566;23.164;2023-06-14T01:36:12;18.90;;;8.98;;
73697;SDS011;62004;42.566;23.164;2023-06-14T01:38:38;20.17;;;10.18;;
73697;SDS011;62004;42.566;23.164;2023-06-14T01:41:04;17.45;;;9.82;;
73697;SDS011;62004;42.566;23.164;2023-06-14T01:43:29;17.10;;;9.32;;
73697;SDS011;62004;42.566;23.164;2023-06-14T01:45:55;14.75;;;9.20;;
73697;SDS011;62004;42.566;23.164;2023-06-14T01:48:22;13.13;;;8.35;;
73697;SDS011;62004;42.566;23.164;2023-06-14T01:50:48;12.23;;;7.83;;
73697;SDS011;62004;42.566;23.164;2023-06-14T01:53:13;12.80;;;8.40;;
73697;SDS011;62004;42.566;23.164;2023-06-14T01:55:38;12.97;;;8.73;;
73697;SDS011;62004;42.566;23.164;2023-06-14T02:00:33;11.15;;;6.95;;
73697;SDS011;62004;42.566;23.164;2023-06-14T02:02:58;13.90;;;8.27;;
73697;SDS011;62004;42.566;23.164;2023-06-14T02:05:23;11.87;;;8.10;;
73697;SDS011;62004;42.566;23.164;2023-06-14T02:07:49;15.47;;;9.77;;
73697;SDS011;62004;42.566;23.164;2023-06-14T02:10:15;17.40;;;9.25;;
73697;SDS011;62004;42.566;23.164;2023-06-14T02:12:42;15.10;;;8.30;;
73697;SDS011;62004;42.566;23.164;2023-06-14T02:15:07;9.90;;;6.57;;
73697;SDS011;62004;42.566;23.164;2023-06-14T02:17:33;9.23;;;5.93;;
73697;SDS011;62004;42.566;23.164;2023-06-14T02:19:59;10.30;;;5.55;;
73697;SDS011;62004;42.566;23.164;2023-06-14T02:22:24;7.35;;;4.93;;
73697;SDS011;62004;42.566;23.164;2023-06-14T02:24:50;6.60;;;4.90;;
73697;SDS011;62004;42.566;23.164;2023-06-14T02:27:15;11.70;;;6.55;;
73697;SDS011;62004;42.566;23.164;2023-06-14T02:29:41;15.82;;;7.82;;
73697;SDS011;62004;42.566;23.164;2023-06-14T02:32:07;13.97;;;8.73;;
73697;SDS011;62004;42.566;23.164;2023-06-14T02:34:35;17.30;;;9.63;;
73697;SDS011;62004;42.566;23.164;2023-06-14T02:37:00;15.95;;;8.95;;
73697;SDS011;62004;42.566;23.164;2023-06-14T02:39:27;17.50;;;9.68;;
73697;SDS011;62004;42.566;23.164;2023-06-14T02:41:53;15.48;;;10.10;;
73697;SDS011;62004;42.566;23.164;2023-06-14T02:44:18;10.20;;;6.27;;
73697;SDS011;62004;42.566;23.164;2023-06-14T02:46:44;5.47;;;4.38;;
73697;SDS011;62004;42.566;23.164;2023-06-14T02:49:10;6.78;;;5.68;;
73697;SDS011;62004;42.566;23.164;2023-06-14T02:51:36;9.93;;;6.38;;
73697;SDS011;62004;42.566;23.164;2023-06-14T02:54:01;10.13;;;6.37;;
73697;SDS011;62004;42.566;23.164;2023-06-14T02:56:26;9.87;;;5.73;;
73697;SDS011;62004;42.566;23.164;2023-06-14T02:58:52;8.63;;;6.05;;
73697;SDS011;62004;42.566;23.164;2023-06-14T03:01:18;16.85;;;9.63;;
73697;SDS011;62004;42.566;23.164;2023-06-14T03:03:45;18.35;;;7.90;;
73697;SDS011;62004;42.566;23.164;2023-06-14T03:06:10;17.02;;;9.02;;
73697;SDS011;62004;42.566;23.164;2023-06-14T03:08:38;16.73;;;8.77;;
73697;SDS011;62004;42.566;23.164;2023-06-14T03:11:04;32.47;;;10.27;;
73697;SDS011;62004;42.566;23.164;2023-06-14T03:13:33;23.55;;;10.45;;
73697;SDS011;62004;42.566;23.164;2023-06-14T03:15:58;17.80;;;9.10;;
73697;SDS011;62004;42.566;23.164;2023-06-14T03:18:24;18.65;;;9.52;;
73697;SDS011;62004;42.566;23.164;2023-06-14T03:20:49;20.27;;;10.60;;
73697;SDS011;62004;42.566;23.164;2023-06-14T03:23:16;27.23;;;11.50;;
73697;SDS011;62004;42.566;23.164;2023-06-14T03:25:41;27.67;;;10.77;;
73697;SDS011;62004;42.566;23.164;2023-06-14T03:28:07;89.20;;;12.05;;
73697;SDS011;62004;42.566;23.164;2023-06-14T03:30:32;55.17;;;11.38;;
73697;SDS011;62004;42.566;23.164;2023-06-14T03:32:58;26.05;;;9.70;;
73697;SDS011;62004;42.566;23.164;2023-06-14T03:35:26;35.35;;;10.27;;
73697;SDS011;62004;42.566;23.164;2023-06-14T03:37:51;17.83;;;8.88;;
73697;SDS011;62004;42.566;23.164;2023-06-14T03:40:17;31.83;;;10.65;;
73697;SDS011;62004;42.566;23.164;2023-06-14T03:42:43;20.85;;;9.93;;
73697;SDS011;62004;42.566;23.164;2023-06-14T03:45:08;19.27;;;9.40;;
73697;SDS011;62004;42.566;23.164;2023-06-14T03:47:33;19.20;;;10.00;;
73697;SDS011;62004;42.566;23.164;2023-06-14T03:49:59;19.52;;;9.68;;
73697;SDS011;62004;42.566;23.164;2023-06-14T03:52:26;17.60;;;9.88;;
73697;SDS011;62004;42.566;23.164;2023-06-14T03:54:51;18.10;;;9.75;;
73697;SDS011;62004;42.566;23.164;2023-06-14T03:57:16;21.87;;;11.03;;
73697;SDS011;62004;42.566;23.164;2023-06-14T03:59:42;17.40;;;9.57;;
73697;SDS011;62004;42.566;23.164;2023-06-14T04:02:07;15.47;;;9.07;;
73697;SDS011;62004;42.566;23.164;2023-06-14T04:04:34;17.23;;;10.32;;
73697;SDS011;62004;42.566;23.164;2023-06-14T04:07:00;26.20;;;10.07;;
73697;SDS011;62004;42.566;23.164;2023-06-14T04:09:28;12.98;;;8.27;;
73697;SDS011;62004;42.566;23.164;2023-06-14T04:11:53;14.05;;;7.90;;
73697;SDS011;62004;42.566;23.164;2023-06-14T04:14:19;10.40;;;6.57;;
73697;SDS011;62004;42.566;23.164;2023-06-14T04:16:45;14.40;;;7.95;;
73697;SDS011;62004;42.566;23.164;2023-06-14T04:19:10;10.68;;;7.32;;
73697;SDS011;62004;42.566;23.164;2023-06-14T04:21:36;14.43;;;7.87;;
73697;SDS011;62004;42.566;23.164;2023-06-14T04:24:01;11.07;;;7.78;;
73697;SDS011;62004;42.566;23.164;2023-06-14T04:26:27;11.73;;;7.07;;
73697;SDS011;62004;42.566;23.164;2023-06-14T04:28:58;7.25;;;5.13;;
73697;SDS011;62004;42.566;23.164;2023-06-14T04:31:26;6.93;;;5.03;;
73697;SDS011;62004;42.566;23.164;2023-06-14T04:33:54;9.77;;;6.93;;
73697;SDS011;62004;42.566;23.164;2023-06-14T04:36:19;8.55;;;5.32;;
73697;SDS011;62004;42.566;23.164;2023-06-14T04:38:44;11.15;;;7.03;;
73697;SDS011;62004;42.566;23.164;2023-06-14T04:41:11;11.38;;;6.38;;
73697;SDS011;62004;42.566;23.164;2023-06-14T04:43:36;7.50;;;5.45;;
73697;SDS011;62004;42.566;23.164;2023-06-14T04:46:03;11.30;;;6.53;;
73697;SDS011;62004;42.566;23.164;2023-06-14T04:48:30;9.52;;;6.97;;
73697;SDS011;62004;42.566;23.164;2023-06-14T04:50:56;10.85;;;6.57;;
73697;SDS011;62004;42.566;23.164;2023-06-14T04:53:21;13.55;;;8.43;;
73697;SDS011;62004;42.566;23.164;2023-06-14T04:55:48;11.55;;;7.72;;
73697;SDS011;62004;42.566;23.164;2023-06-14T04:58:13;10.07;;;6.80;;
73697;SDS011;62004;42.566;23.164;2023-06-14T05:00:38;10.35;;;6.47;;
73697;SDS011;62004;42.566;23.164;2023-06-14T05:03:04;9.17;;;6.93;;
73697;SDS011;62004;42.566;23.164;2023-06-14T05:05:30;8.70;;;6.32;;
73697;SDS011;62004;42.566;23.164;2023-06-14T05:07:56;11.52;;;7.55;;
73697;SDS011;62004;42.566;23.164;2023-06-14T05:10:21;9.60;;;6.97;;
73697;SDS011;62004;42.566;23.164;2023-06-14T05:12:46;12.30;;;7.87;;
73697;SDS011;62004;42.566;23.164;2023-06-14T05:15:12;9.50;;;7.10;;
73697;SDS011;62004;42.566;23.164;2023-06-14T05:17:38;12.05;;;7.40;;
73697;SDS011;62004;42.566;23.164;2023-06-14T05:20:05;8.80;;;6.53;;
73697;SDS011;62004;42.566;23.164;2023-06-14T05:22:31;9.63;;;7.25;;
73697;SDS011;62004;42.566;23.164;2023-06-14T05:24:57;12.73;;;6.47;;
73697;SDS011;62004;42.566;23.164;2023-06-14T05:27:22;12.35;;;7.22;;
73697;SDS011;62004;42.566;23.164;2023-06-14T05:29:48;10.07;;;7.32;;
73697;SDS011;62004;42.566;23.164;2023-06-14T05:32:14;9.80;;;6.78;;
73697;SDS011;62004;42.566;23.164;2023-06-14T05:34:40;9.65;;;6.82;;
73697;SDS011;62004;42.566;23.164;2023-06-14T05:37:05;9.60;;;6.78;;
73697;SDS011;62004;42.566;23.164;2023-06-14T05:39:31;9.02;;;6.90;;
73697;SDS011;62004;42.566;23.164;2023-06-14T05:41:56;10.60;;;7.57;;
73697;SDS011;62004;42.566;23.164;2023-06-14T05:44:21;11.55;;;6.95;;
73697;SDS011;62004;42.566;23.164;2023-06-14T05:46:47;10.93;;;7.70;;
73697;SDS011;62004;42.566;23.164;2023-06-14T05:49:12;12.23;;;7.38;;
73697;SDS011;62004;42.566;23.164;2023-06-14T05:51:37;12.05;;;7.72;;
73697;SDS011;62004;42.566;23.164;2023-06-14T05:54:03;12.48;;;8.98;;
73697;SDS011;62004;42.566;23.164;2023-06-14T05:56:28;12.20;;;7.38;;
73697;SDS011;62004;42.566;23.164;2023-06-14T05:58:54;12.48;;;7.38;;
73697;SDS011;62004;42.566;23.164;2023-06-14T06:01:19;14.48;;;9.20;;
73697;SDS011;62004;42.566;23.164;2023-06-14T06:03:45;11.75;;;7.47;;
73697;SDS011;62004;42.566;23.164;2023-06-14T06:06:11;11.45;;;7.47;;
73697;SDS011;62004;42.566;23.164;2023-06-14T06:08:37;10.30;;;6.63;;
73697;SDS011;62004;42.566;23.164;2023-06-14T06:11:02;11.75;;;8.65;;
73697;SDS011;62004;42.566;23.164;2023-06-14T06:13:27;13.90;;;8.82;;
73697;SDS011;62004;42.566;23.164;2023-06-14T06:15:53;12.23;;;8.07;;
73697;SDS011;62004;42.566;23.164;2023-06-14T06:18:18;12.35;;;8.30;;
73697;SDS011;62004;42.566;23.164;2023-06-14T06:20:43;15.95;;;9.95;;
73697;SDS011;62004;42.566;23.164;2023-06-14T06:23:09;14.30;;;8.70;;
73697;SDS011;62004;42.566;23.164;2023-06-14T06:25:34;10.05;;;7.32;;
73697;SDS011;62004;42.566;23.164;2023-06-14T06:28:00;14.25;;;9.48;;
73697;SDS011;62004;42.566;23.164;2023-06-14T06:30:25;12.27;;;8.82;;
73697;SDS011;62004;42.566;23.164;2023-06-14T06:32:51;16.02;;;9.27;;
73697;SDS011;62004;42.566;23.164;2023-06-14T06:35:16;8.35;;;7.20;;
73697;SDS011;62004;42.566;23.164;2023-06-14T06:37:41;11.38;;;7.20;;
73697;SDS011;62004;42.566;23.164;2023-06-14T06:40:07;9.40;;;7.00;;
73697;SDS011;62004;42.566;23.164;2023-06-14T06:42:33;8.82;;;7.22;;
73697;SDS011;62004;42.566;23.164;2023-06-14T06:44:58;11.43;;;8.40;;
73697;SDS011;62004;42.566;23.164;2023-06-14T06:47:24;9.80;;;7.60;;
73697;SDS011;62004;42.566;23.164;2023-06-14T06:49:50;17.20;;;10.20;;
73697;SDS011;62004;42.566;23.164;2023-06-14T06:52:15;14.95;;;8.95;;
73697;SDS011;62004;42.566;23.164;2023-06-14T06:54:41;7.70;;;7.00;;
73697;SDS011;62004;42.566;23.164;2023-06-14T06:57:06;11.18;;;7.40;;
73697;SDS011;62004;42.566;23.164;2023-06-14T06:59:31;7.63;;;6.72;;
73697;SDS011;62004;42.566;23.164;2023-06-14T07:01:57;7.65;;;6.70;;
73697;SDS011;62004;42.566;23.164;2023-06-14T07:04:22;6.78;;;6.13;;
73697;SDS011;62004;42.566;23.164;2023-06-14T07:06:48;8.02;;;7.22;;
73697;SDS011;62004;42.566;23.164;2023-06-14T07:09:13;7.35;;;6.65;;
73697;SDS011;62004;42.566;23.164;2023-06-14T07:11:40;7.40;;;6.72;;
73697;SDS011;62004;42.566;23.164;2023-06-14T07:14:06;7.80;;;7.07;;
73697;SDS011;62004;42.566;23.164;2023-06-14T07:16:31;9.05;;;7.15;;
73697;SDS011;62004;42.566;23.164;2023-06-14T07:18:57;7.38;;;5.85;;
73697;SDS011;62004;42.566;23.164;2023-06-14T07:21:22;7.35;;;6.00;;
73697;SDS011;62004;42.566;23.164;2023-06-14T07:23:48;6.60;;;6.05;;
73697;SDS011;62004;42.566;23.164;2023-06-14T07:26:13;12.73;;;7.18;;
73697;SDS011;62004;42.566;23.164;2023-06-14T07:28:38;26.92;;;8.93;;
73697;SDS011;62004;42.566;23.164;2023-06-14T07:31:04;8.75;;;5.40;;
73697;SDS011;62004;42.566;23.164;2023-06-14T07:33:29;5.75;;;5.25;;
73697;SDS011;62004;42.566;23.164;2023-06-14T07:35:55;6.45;;;5.85;;
73697;SDS011;62004;42.566;23.164;2023-06-14T07:38:20;6.97;;;6.28;;
73697;SDS011;62004;42.566;23.164;2023-06-14T07:40:46;11.07;;;7.55;;
73697;SDS011;62004;42.566;23.164;2023-06-14T07:43:11;7.63;;;6.90;;
73697;SDS011;62004;42.566;23.164;2023-06-14T07:45:37;10.30;;;7.32;;
73697;SDS011;62004;42.566;23.164;2023-06-14T07:48:02;7.10;;;6.07;;
73697;SDS011;62004;42.566;23.164;2023-06-14T07:50:28;9.75;;;7.45;;
73697;SDS011;62004;42.566;23.164;2023-06-14T07:52:54;11.43;;;6.72;;
73697;SDS011;62004;42.566;23.164;2023-06-14T07:55:19;8.13;;;7.03;;
73697;SDS011;62004;42.566;23.164;2023-06-14T07:57:44;7.43;;;6.43;;
73697;SDS011;62004;42.566;23.164;2023-06-14T08:00:10;8.13;;;7.00;;
73697;SDS011;62004;42.566;23.164;2023-06-14T08:02:43;8.23;;;7.03;;
73697;SDS011;62004;42.566;23.164;2023-06-14T08:05:09;8.15;;;6.18;;
73697;SDS011;62004;42.566;23.164;2023-06-14T08:07:36;10.38;;;6.97;;
73697;SDS011;62004;42.566;23.164;2023-06-14T08:10:02;8.55;;;7.55;;
73697;SDS011;62004;42.566;23.164;2023-06-14T08:12:27;8.32;;;7.22;;
73697;SDS011;62004;42.566;23.164;2023-06-14T08:14:53;9.57;;;8.50;;
73697;SDS011;62004;42.566;23.164;2023-06-14T08:17:18;11.20;;;7.50;;
73697;SDS011;62004;42.566;23.164;2023-06-14T08:19:43;7.18;;;5.65;;
73697;SDS011;62004;42.566;23.164;2023-06-14T08:22:09;6.78;;;5.93;;
73697;SDS011;62004;42.566;23.164;2023-06-14T08:24:36;8.93;;;6.72;;
73697;SDS011;62004;42.566;23.164;2023-06-14T08:27:02;9.48;;;6.68;;
73697;SDS011;62004;42.566;23.164;2023-06-14T08:29:27;9.23;;;6.80;;
73697;SDS011;62004;42.566;23.164;2023-06-14T08:31:54;6.50;;;5.85;;
73697;SDS011;62004;42.566;23.164;2023-06-14T08:34:20;8.38;;;6.15;;
73697;SDS011;62004;42.566;23.164;2023-06-14T08:36:45;7.20;;;6.32;;
73697;SDS011;62004;42.566;23.164;2023-06-14T08:39:11;12.75;;;6.45;;
73697;SDS011;62004;42.566;23.164;2023-06-14T08:41:36;9.57;;;6.15;;
73697;SDS011;62004;42.566;23.164;2023-06-14T08:44:02;9.50;;;5.72;;
73697;SDS011;62004;42.566;23.164;2023-06-14T08:46:28;29.85;;;6.75;;
73697;SDS011;62004;42.566;23.164;2023-06-14T08:48:58;6.57;;;5.47;;
73697;SDS011;62004;42.566;23.164;2023-06-14T08:51:25;6.47;;;5.88;;
73697;SDS011;62004;42.566;23.164;2023-06-14T08:53:53;6.70;;;5.70;;
73697;SDS011;62004;42.566;23.164;2023-06-14T08:56:22;6.30;;;5.70;;
73697;SDS011;62004;42.566;23.164;2023-06-14T08:58:50;6.05;;;5.45;;
73697;SDS011;62004;42.566;23.164;2023-06-14T09:01:16;5.78;;;5.22;;
73697;SDS011;62004;42.566;23.164;2023-06-14T09:03:42;7.07;;;6.38;;
73697;SDS011;62004;42.566;23.164;2023-06-14T09:06:08;6.00;;;5.40;;
73697;SDS011;62004;42.566;23.164;2023-06-14T09:08:39;5.80;;;4.82;;
73697;SDS011;62004;42.566;23.164;2023-06-14T09:11:06;6.25;;;5.65;;
73697;SDS011;62004;42.566;23.164;2023-06-14T09:13:32;6.80;;;5.75;;
73697;SDS011;62004;42.566;23.164;2023-06-14T09:15:57;6.55;;;5.70;;
73697;SDS011;62004;42.566;23.164;2023-06-14T09:18:26;8.38;;;6.45;;
73697;SDS011;62004;42.566;23.164;2023-06-14T09:20:59;6.82;;;5.60;;
73697;SDS011;62004;42.566;23.164;2023-06-14T09:23:24;6.53;;;5.82;;
73697;SDS011;62004;42.566;23.164;2023-06-14T09:25:50;6.88;;;6.18;;
73697;SDS011;62004;42.566;23.164;2023-06-14T09:28:15;7.82;;;5.65;;
73697;SDS011;62004;42.566;23.164;2023-06-14T09:30:40;5.85;;;5.25;;
73697;SDS011;62004;42.566;23.164;2023-06-14T09:33:06;6.95;;;5.18;;
73697;SDS011;62004;42.566;23.164;2023-06-14T09:35:32;7.25;;;5.53;;
73697;SDS011;62004;42.566;23.164;2023-06-14T09:37:57;6.15;;;5.40;;
73697;SDS011;62004;42.566;23.164;2023-06-14T09:40:23;6.72;;;5.70;;
73697;SDS011;62004;42.566;23.164;2023-06-14T09:42:48;6.18;;;5.60;;
73697;SDS011;62004;42.566;23.164;2023-06-14T09:45:15;5.43;;;4.53;;
73697;SDS011;62004;42.566;23.164;2023-06-14T09:47:44;6.55;;;4.97;;
73697;SDS011;62004;42.566;23.164;2023-06-14T09:50:10;5.28;;;4.78;;
73697;SDS011;62004;42.566;23.164;2023-06-14T09:52:36;5.93;;;4.47;;
73697;SDS011;62004;42.566;23.164;2023-06-14T09:55:01;7.10;;;5.00;;
73697;SDS011;62004;42.566;23.164;2023-06-14T09:57:40;6.72;;;5.70;;
73697;SDS011;62004;42.566;23.164;2023-06-14T10:00:06;6.70;;;6.03;;
73697;SDS011;62004;42.566;23.164;2023-06-14T10:02:36;5.72;;;5.07;;
73697;SDS011;62004;42.566;23.164;2023-06-14T10:05:06;5.53;;;4.88;;
73697;SDS011;62004;42.566;23.164;2023-06-14T10:07:55;6.47;;;5.20;;
73697;SDS011;62004;42.566;23.164;2023-06-14T10:10:26;4.55;;;4.15;;
73697;SDS011;62004;42.566;23.164;2023-06-14T10:12:52;5.50;;;4.45;;
73697;SDS011;62004;42.566;23.164;2023-06-14T10:15:24;6.30;;;4.38;;
73697;SDS011;62004;42.566;23.164;2023-06-14T10:17:57;4.43;;;3.75;;
73697;SDS011;62004;42.566;23.164;2023-06-14T10:23:17;3.85;;;3.55;;
73697;SDS011;62004;42.566;23.164;2023-06-14T10:25:54;7.18;;;4.97;;
73697;SDS011;62004;42.566;23.164;2023-06-14T10:28:21;5.53;;;4.85;;
73697;SDS011;62004;42.566;23.164;2023-06-14T10:31:21;5.45;;;4.88;;
73697;SDS011;62004;42.566;23.164;2023-06-14T10:33:48;4.72;;;4.32;;
73697;SDS011;62004;42.566;23.164;2023-06-14T10:36:24;6.47;;;5.88;;
73697;SDS011;62004;42.566;23.164;2023-06-14T10:39:10;7.05;;;5.60;;
73697;SDS011;62004;42.566;23.164;2023-06-14T10:41:40;7.18;;;4.68;;
73697;SDS011;62004;42.566;23.164;2023-06-14T10:46:37;4.97;;;4.47;;
73697;SDS011;62004;42.566;23.164;2023-06-14T10:49:02;8.05;;;4.88;;
73697;SDS011;62004;42.566;23.164;2023-06-14T10:51:29;6.65;;;5.57;;
73697;SDS011;62004;42.566;23.164;2023-06-14T10:53:55;6.22;;;5.40;;
73697;SDS011;62004;42.566;23.164;2023-06-14T10:56:30;6.30;;;5.38;;
73697;SDS011;62004;42.566;23.164;2023-06-14T10:58:56;10.25;;;5.97;;
73697;SDS011;62004;42.566;23.164;2023-06-14T11:01:31;5.60;;;5.03;;
73697;SDS011;62004;42.566;23.164;2023-06-14T11:04:09;7.72;;;6.68;;
73697;SDS011;62004;42.566;23.164;2023-06-14T11:06:42;6.30;;;5.50;;
73697;SDS011;62004;42.566;23.164;2023-06-14T11:09:23;6.30;;;5.50;;
73697;SDS011;62004;42.566;23.164;2023-06-14T11:12:06;6.70;;;6.07;;
73697;SDS011;62004;42.566;23.164;2023-06-14T11:14:35;7.07;;;6.38;;
73697;SDS011;62004;42.566;23.164;2023-06-14T11:17:01;6.70;;;6.07;;
73697;SDS011;62004;42.566;23.164;2023-06-14T11:19:26;8.65;;;5.95;;
73697;SDS011;62004;42.566;23.164;2023-06-14T11:21:53;7.10;;;6.15;;
73697;SDS011;62004;42.566;23.164;2023-06-14T11:24:19;7.70;;;6.40;;
73697;SDS011;62004;42.566;23.164;2023-06-14T11:26:46;8.93;;;6.95;;
73697;SDS011;62004;42.566;23.164;2023-06-14T11:29:12;8.93;;;6.85;;
73697;SDS011;62004;42.566;23.164;2023-06-14T11:31:43;8.63;;;7.63;;
73697;SDS011;62004;42.566;23.164;2023-06-14T11:36:34;8.77;;;6.85;;
73697;SDS011;62004;42.566;23.164;2023-06-14T11:39:04;7.90;;;6.53;;
73697;SDS011;62004;42.566;23.164;2023-06-14T11:41:41;8.35;;;6.50;;
73697;SDS011;62004;42.566;23.164;2023-06-14T11:44:08;8.60;;;7.35;;
73697;SDS011;62004;42.566;23.164;2023-06-14T11:46:34;7.75;;;6.88;;
73697;SDS011;62004;42.566;23.164;2023-06-14T11:49:00;8.60;;;6.38;;
73697;SDS011;62004;42.566;23.164;2023-06-14T11:51:33;8.48;;;6.60;;
73697;SDS011;62004;42.566;23.164;2023-06-14T11:53:59;6.20;;;5.60;;
73697;SDS011;62004;42.566;23.164;2023-06-14T11:56:25;7.18;;;6.47;;
73697;SDS011;62004;42.566;23.164;2023-06-14T11:58:52;6.78;;;6.05;;
73697;SDS011;62004;42.566;23.164;2023-06-14T12:01:17;6.95;;;6.30;;
73697;SDS011;62004;42.566;23.164;2023-06-14T12:03:49;6.55;;;5.68;;
73697;SDS011;62004;42.566;23.164;2023-06-14T12:06:15;8.32;;;6.32;;
73697;SDS011;62004;42.566;23.164;2023-06-14T12:08:43;8.23;;;6.72;;
73697;SDS011;62004;42.566;23.164;2023-06-14T12:11:11;8.68;;;7.07;;
73697;SDS011;62004;42.566;23.164;2023-06-14T12:13:40;8.27;;;6.63;;
73697;SDS011;62004;42.566;23.164;2023-06-14T12:16:07;8.15;;;7.28;;
73697;SDS011;62004;42.566;23.164;2023-06-14T12:18:37;10.38;;;6.97;;
73697;SDS011;62004;42.566;23.164;2023-06-14T12:21:07;8.15;;;6.47;;
73697;SDS011;62004;42.566;23.164;2023-06-14T12:23:42;13.40;;;6.72;;
73697;SDS011;62004;42.566;23.164;2023-06-14T12:26:08;7.55;;;6.65;;
73697;SDS011;62004;42.566;23.164;2023-06-14T12:28:33;6.00;;;5.40;;
73697;SDS011;62004;42.566;23.164;2023-06-14T12:30:58;7.38;;;6.10;;
73697;SDS011;62004;42.566;23.164;2023-06-14T12:33:24;7.32;;;6.60;;
73697;SDS011;62004;42.566;23.164;2023-06-14T12:35:50;8.63;;;7.15;;
73697;SDS011;62004;42.566;23.164;2023-06-14T12:38:16;8.00;;;6.05;;
73697;SDS011;62004;42.566;23.164;2023-06-14T12:40:41;7.13;;;6.43;;
73697;SDS011;62004;42.566;23.164;2023-06-14T12:43:07;7.13;;;6.00;;
73697;SDS011;62004;42.566;23.164;2023-06-14T12:45:33;6.85;;;6.10;;
73697;SDS011;62004;42.566;23.164;2023-06-14T12:47:58;7.90;;;6.47;;
73697;SDS011;62004;42.566;23.164;2023-06-14T12:50:23;7.55;;;6.22;;
73697;SDS011;62004;42.566;23.164;2023-06-14T12:52:49;6.47;;;5.75;;
73697;SDS011;62004;42.566;23.164;2023-06-14T12:55:14;7.15;;;5.85;;
73697;SDS011;62004;42.566;23.164;2023-06-14T12:57:39;9.50;;;6.68;;
73697;SDS011;62004;42.566;23.164;2023-06-14T13:00:05;5.43;;;4.93;;
73697;SDS011;62004;42.566;23.164;2023-06-14T13:02:32;6.15;;;5.55;;
73697;SDS011;62004;42.566;23.164;2023-06-14T13:04:58;6.70;;;6.00;;
73697;SDS011;62004;42.566;23.164;2023-06-14T13:07:24;6.32;;;4.90;;
73697;SDS011;62004;42.566;23.164;2023-06-14T13:09:49;7.15;;;5.45;;
73697;SDS011;62004;42.566;23.164;2023-06-14T13:12:15;6.18;;;5.57;;
73697;SDS011;62004;42.566;23.164;2023-06-14T13:14:40;7.75;;;5.85;;
73697;SDS011;62004;42.566;23.164;2023-06-14T13:17:09;6.93;;;5.80;;
73697;SDS011;62004;42.566;23.164;2023-06-14T13:19:35;6.30;;;5.70;;
73697;SDS011;62004;42.566;23.164;2023-06-14T13:22:01;7.15;;;6.40;;
73697;SDS011;62004;42.566;23.164;2023-06-14T13:24:27;6.30;;;5.50;;
73697;SDS011;62004;42.566;23.164;2023-06-14T13:26:53;8.93;;;6.45;;
73697;SDS011;62004;42.566;23.164;2023-06-14T13:29:18;8.88;;;6.57;;
73697;SDS011;62004;42.566;23.164;2023-06-14T13:31:44;7.63;;;6.90;;
73697;SDS011;62004;42.566;23.164;2023-06-14T13:34:10;9.57;;;6.60;;
73697;SDS011;62004;42.566;23.164;2023-06-14T13:36:35;8.95;;;7.45;;
73697;SDS011;62004;42.566;23.164;2023-06-14T13:39:00;9.30;;;8.30;;
73697;SDS011;62004;42.566;23.164;2023-06-14T13:41:28;11.25;;;8.52;;
73697;SDS011;62004;42.566;23.164;2023-06-14T13:43:57;9.30;;;7.25;;
73697;SDS011;62004;42.566;23.164;2023-06-14T13:46:23;9.20;;;7.32;;
73697;SDS011;62004;42.566;23.164;2023-06-14T13:48:48;9.43;;;8.05;;
73697;SDS011;62004;42.566;23.164;2023-06-14T13:51:14;9.50;;;8.20;;
73697;SDS011;62004;42.566;23.164;2023-06-14T13:53:39;7.85;;;6.85;;
73697;SDS011;62004;42.566;23.164;2023-06-14T13:56:04;10.25;;;6.88;;
73697;SDS011;62004;42.566;23.164;2023-06-14T13:58:30;10.15;;;6.88;;
73697;SDS011;62004;42.566;23.164;2023-06-14T14:00:55;9.07;;;6.55;;
73697;SDS011;62004;42.566;23.164;2023-06-14T14:03:21;9.50;;;7.55;;
73697;SDS011;62004;42.566;23.164;2023-06-14T14:05:47;6.80;;;6.20;;
73697;SDS011;62004;42.566;23.164;2023-06-14T14:08:12;10.27;;;7.07;;
73697;SDS011;62004;42.566;23.164;2023-06-14T14:10:39;11.02;;;7.68;;
73697;SDS011;62004;42.566;23.164;2023-06-14T14:13:04;10.57;;;7.70;;
73697;SDS011;62004;42.566;23.164;2023-06-14T14:15:29;12.20;;;8.65;;
73697;SDS011;62004;42.566;23.164;2023-06-14T14:17:55;9.90;;;6.75;;
73697;SDS011;62004;42.566;23.164;2023-06-14T14:20:22;7.90;;;7.05;;
73697;SDS011;62004;42.566;23.164;2023-06-14T14:22:48;6.30;;;5.65;;
73697;SDS011;62004;42.566;23.164;2023-06-14T14:25:13;6.60;;;5.90;;
73697;SDS011;62004;42.566;23.164;2023-06-14T14:27:39;7.70;;;5.47;;
73697;SDS011;62004;42.566;23.164;2023-06-14T14:30:05;7.10;;;6.38;;
73697;SDS011;62004;42.566;23.164;2023-06-14T14:32:30;6.95;;;6.25;;
73697;SDS011;62004;42.566;23.164;2023-06-14T14:34:56;10.38;;;7.82;;
73697;SDS011;62004;42.566;23.164;2023-06-14T14:37:21;9.80;;;7.78;;
73697;SDS011;62004;42.566;23.164;2023-06-14T14:39:47;8.10;;;6.97;;
73697;SDS011;62004;42.566;23.164;2023-06-14T14:42:12;7.03;;;6.32;;
73697;SDS011;62004;42.566;23.164;2023-06-14T14:44:38;7.72;;;6.57;;